createdAt,value
2022-10-25T00:01:20.117Z,18.30
2022-10-25T00:03:47.429Z,18.30
2022-10-25T00:06:14.453Z,18.20
2022-10-25T00:08:41.847Z,18.20
2022-10-25T00:11:15.793Z,18.20
2022-10-25T00:13:49.340Z,18.20
2022-10-25T00:16:18.290Z,18.20
2022-10-25T00:18:46.099Z,18.20
2022-10-25T00:21:13.502Z,18.20
2022-10-25T00:23:40.566Z,18.10
2022-10-25T00:26:09.746Z,18.10
2022-10-25T00:28:37.250Z,18.10
2022-10-25T00:31:07.377Z,18.10
2022-10-25T00:33:35.636Z,18.10
2022-10-25T00:36:13.632Z,18.00
2022-10-25T00:38:41.574Z,18.00
2022-10-25T00:41:10.365Z,18.00
2022-10-25T00:43:44.006Z,18.00
2022-10-25T00:46:24.086Z,18.00
2022-10-25T00:49:15.824Z,18.00
2022-10-25T00:52:05.287Z,18.00
2022-10-25T00:54:39.230Z,18.00
2022-10-25T00:57:15.684Z,17.90
2022-10-25T00:59:44.581Z,17.90
2022-10-25T01:02:12.202Z,17.90
2022-10-25T01:04:39.416Z,17.90
2022-10-25T01:07:06.684Z,17.80
2022-10-25T01:09:36.722Z,17.80
2022-10-25T01:12:04.930Z,17.80
2022-10-25T01:14:41.047Z,17.80
2022-10-25T01:17:55.824Z,17.80
2022-10-25T01:20:46.772Z,17.80
2022-10-25T01:23:35.611Z,17.80
2022-10-25T01:26:09.031Z,17.70
2022-10-25T01:28:58.092Z,17.70
2022-10-25T01:31:44.268Z,17.70
2022-10-25T01:34:14.159Z,17.70
2022-10-25T01:37:05.807Z,17.70
2022-10-25T01:39:45.423Z,17.70
2022-10-25T01:42:27.557Z,17.70
2022-10-25T01:45:16.505Z,17.70
2022-10-25T01:47:49.509Z,17.70
2022-10-25T01:50:21.754Z,17.70
2022-10-25T01:52:49.327Z,17.70
2022-10-25T01:55:18.001Z,17.70
2022-10-25T01:58:10.102Z,17.70
2022-10-25T02:00:59.191Z,17.70
2022-10-25T02:03:33.251Z,17.80
2022-10-25T02:06:12.619Z,17.80
2022-10-25T02:08:49.120Z,17.80
2022-10-25T02:11:33.886Z,17.80
2022-10-25T02:14:15.946Z,17.80
2022-10-25T02:17:00.620Z,17.80
2022-10-25T02:19:34.966Z,17.80
2022-10-25T02:22:04.258Z,17.80
2022-10-25T02:24:32.898Z,17.80
2022-10-25T02:27:02.086Z,17.80
2022-10-25T02:29:31.818Z,17.80
2022-10-25T02:31:59.351Z,17.80
2022-10-25T02:34:26.219Z,17.80
2022-10-25T02:36:54.392Z,17.80
2022-10-25T02:39:26.513Z,17.80
2022-10-25T02:41:56.633Z,17.80
2022-10-25T02:44:23.878Z,17.80
2022-10-25T02:46:50.822Z,17.80
2022-10-25T02:49:17.868Z,17.80
2022-10-25T02:51:44.867Z,17.80
2022-10-25T02:54:12.390Z,17.80
2022-10-25T02:56:39.298Z,17.70
2022-10-25T02:59:06.736Z,17.70
2022-10-25T03:01:34.039Z,17.70
2022-10-25T03:04:01.078Z,17.70
2022-10-25T03:06:28.370Z,17.70
2022-10-25T03:08:58.386Z,17.60
2022-10-25T03:11:26.042Z,17.70
2022-10-25T03:13:53.192Z,17.60
2022-10-25T03:16:20.187Z,17.60
2022-10-25T03:18:47.190Z,17.60
2022-10-25T03:21:14.413Z,17.60
2022-10-25T03:23:41.627Z,17.60
2022-10-25T03:26:08.764Z,17.60
2022-10-25T03:28:35.750Z,17.50
2022-10-25T03:31:02.643Z,17.50
2022-10-25T03:35:57.248Z,17.50
2022-10-25T03:38:24.297Z,17.50
2022-10-25T03:40:51.448Z,17.40
2022-10-25T03:43:18.849Z,17.50
2022-10-25T03:45:46.021Z,17.50
2022-10-25T03:48:13.330Z,17.50
2022-10-25T03:50:40.783Z,17.50
2022-10-25T03:55:36.579Z,17.50
2022-10-25T03:58:03.762Z,17.50
2022-10-25T04:00:31.045Z,17.50
2022-10-25T04:03:03.127Z,17.50
2022-10-25T04:05:31.975Z,17.50
2022-10-25T04:07:59.686Z,17.50
2022-10-25T04:10:27.309Z,17.40
2022-10-25T04:12:55.036Z,17.40
2022-10-25T04:15:22.996Z,17.40
2022-10-25T04:17:51.729Z,17.40
2022-10-25T04:20:19.191Z,17.40
2022-10-25T04:22:46.146Z,17.40
2022-10-25T04:25:13.310Z,17.40
2022-10-25T04:27:40.226Z,17.40
2022-10-25T04:30:07.678Z,17.30
2022-10-25T04:32:34.725Z,17.30
2022-10-25T04:35:02.192Z,17.30
2022-10-25T04:37:29.315Z,17.30
2022-10-25T04:39:56.229Z,17.30
2022-10-25T04:42:23.102Z,17.30
2022-10-25T04:44:50.118Z,17.20
2022-10-25T04:47:17.529Z,17.20
2022-10-25T04:49:44.664Z,17.20
2022-10-25T04:52:11.580Z,17.20
2022-10-25T04:54:39.084Z,17.10
2022-10-25T04:57:07.283Z,17.10
2022-10-25T04:59:34.199Z,17.10
2022-10-25T05:02:01.202Z,17.10
2022-10-25T05:04:28.602Z,17.10
2022-10-25T05:06:55.721Z,17.10
2022-10-25T05:09:22.704Z,17.10
2022-10-25T05:11:50.097Z,17.10
2022-10-25T05:14:17.175Z,17.10
2022-10-25T05:16:44.175Z,17.00
2022-10-25T05:19:11.292Z,17.00
2022-10-25T05:21:38.318Z,17.00
2022-10-25T05:24:06.134Z,17.00
2022-10-25T05:26:33.478Z,17.00
2022-10-25T05:29:01.914Z,17.00
2022-10-25T05:31:30.974Z,17.00
2022-10-25T05:34:00.508Z,17.00
2022-10-25T05:36:32.985Z,17.00
2022-10-25T05:39:01.294Z,16.90
2022-10-25T05:41:31.871Z,17.00
2022-10-25T05:44:02.249Z,16.90
2022-10-25T05:46:29.758Z,16.90
2022-10-25T05:48:59.193Z,16.90
2022-10-25T05:51:33.254Z,16.90
2022-10-25T05:54:07.635Z,16.90
2022-10-25T05:56:35.546Z,16.90
2022-10-25T05:59:08.754Z,16.90
2022-10-25T06:01:40.576Z,16.90
2022-10-25T06:04:09.956Z,16.90
2022-10-25T06:06:38.676Z,16.90
2022-10-25T06:09:06.958Z,16.90
2022-10-25T06:11:34.727Z,16.90
2022-10-25T06:14:01.875Z,16.90
2022-10-25T06:16:29.373Z,17.00
2022-10-25T06:18:56.471Z,17.00
2022-10-25T06:21:28.934Z,17.00
2022-10-25T06:23:57.974Z,17.00
2022-10-25T06:26:27.198Z,17.00
2022-10-25T06:28:56.518Z,17.10
2022-10-25T06:31:24.342Z,17.10
2022-10-25T06:33:51.561Z,17.20
2022-10-25T06:36:23.962Z,17.40
2022-10-25T06:38:51.549Z,17.60
2022-10-25T06:41:24.685Z,17.90
2022-10-25T06:43:52.209Z,18.30
2022-10-25T06:46:30.262Z,18.60
2022-10-25T06:48:59.910Z,19.00
2022-10-25T06:51:29.883Z,19.30
2022-10-25T06:53:57.713Z,19.60
2022-10-25T06:56:26.646Z,19.90
2022-10-25T06:58:54.663Z,20.10
2022-10-25T07:01:23.270Z,20.30
2022-10-25T07:03:51.134Z,20.40
2022-10-25T07:06:22.640Z,20.40
2022-10-25T07:08:53.747Z,20.50
2022-10-25T07:11:21.258Z,20.60
2022-10-25T07:13:48.349Z,20.70
2022-10-25T07:16:17.392Z,20.60
2022-10-25T07:18:44.922Z,20.50
2022-10-25T07:21:18.864Z,20.40
2022-10-25T07:23:47.202Z,20.30
2022-10-25T07:26:26.652Z,20.10
2022-10-25T07:28:56.225Z,20.00
2022-10-25T07:31:35.309Z,20.10
2022-10-25T07:34:04.342Z,20.20
2022-10-25T07:36:31.743Z,20.30
2022-10-25T07:38:58.859Z,20.50
2022-10-25T07:41:26.835Z,20.60
2022-10-25T07:43:55.552Z,20.70
2022-10-25T07:46:23.051Z,20.70
2022-10-25T07:48:50.131Z,20.70
2022-10-25T07:51:18.442Z,20.60
2022-10-25T07:53:45.475Z,20.50
2022-10-25T07:56:20.391Z,20.40
2022-10-25T07:58:51.309Z,20.30
2022-10-25T08:01:22.294Z,20.20
2022-10-25T08:03:51.653Z,20.10
2022-10-25T08:06:19.950Z,20.10
2022-10-25T08:08:47.491Z,20.10
2022-10-25T08:11:15.505Z,20.20
2022-10-25T08:13:42.829Z,20.30
2022-10-25T08:16:09.836Z,20.40
2022-10-25T08:18:36.778Z,20.50
2022-10-25T08:21:04.715Z,20.60
2022-10-25T08:23:32.957Z,20.60
2022-10-25T08:26:01.286Z,20.60
2022-10-25T08:28:31.415Z,20.60
2022-10-25T08:31:00.840Z,20.40
2022-10-25T08:33:28.796Z,20.30
2022-10-25T08:35:56.029Z,20.20
2022-10-25T08:38:23.157Z,20.10
2022-10-25T08:40:56.243Z,20.00
2022-10-25T08:43:44.823Z,19.90
2022-10-25T08:46:20.853Z,19.80
2022-10-25T08:49:10.799Z,19.70
2022-10-25T08:51:40.501Z,19.70
2022-10-25T08:54:30.986Z,19.60
2022-10-25T08:57:17.883Z,19.60
2022-10-25T08:59:50.244Z,19.60
2022-10-25T09:02:53.120Z,19.60
2022-10-25T09:05:41.001Z,19.60
2022-10-25T09:08:20.641Z,19.70
2022-10-25T09:11:10.606Z,19.80
2022-10-25T09:13:41.008Z,19.90
2022-10-25T09:16:15.383Z,19.90
2022-10-25T09:18:55.830Z,20.00
2022-10-25T09:21:55.117Z,20.00
2022-10-25T09:24:44.547Z,20.00
2022-10-25T09:27:22.130Z,20.00
2022-10-25T09:30:03.797Z,19.90
2022-10-25T09:32:42.255Z,19.90
2022-10-25T09:35:26.555Z,19.90
2022-10-25T09:37:58.688Z,19.80
2022-10-25T09:40:30.793Z,19.80
2022-10-25T09:43:17.301Z,19.70
2022-10-25T09:45:57.521Z,19.70
2022-10-25T09:48:43.880Z,19.60
2022-10-25T09:51:38.901Z,19.50
2022-10-25T09:54:17.728Z,19.50
2022-10-25T09:56:44.829Z,19.50
2022-10-25T09:59:15.724Z,19.40
2022-10-25T10:01:43.496Z,19.40
2022-10-25T10:04:26.755Z,19.40
2022-10-25T10:07:15.554Z,19.30
2022-10-25T10:09:46.165Z,19.40
2022-10-25T10:12:22.242Z,19.40
2022-10-25T10:14:57.189Z,19.40
2022-10-25T10:17:25.352Z,19.50
2022-10-25T10:20:10.488Z,19.60
2022-10-25T10:22:45.420Z,19.80
2022-10-25T10:25:18.599Z,19.80
2022-10-25T10:27:47.963Z,19.90
2022-10-25T10:30:30.290Z,19.90
2022-10-25T10:33:00.865Z,19.90
2022-10-25T10:35:36.156Z,19.90
2022-10-25T10:38:24.004Z,19.80
2022-10-25T10:40:54.314Z,19.80
2022-10-25T10:43:30.979Z,19.80
2022-10-25T10:46:09.017Z,19.80
2022-10-25T10:48:43.095Z,19.80
2022-10-25T10:51:43.077Z,19.70
2022-10-25T10:54:28.065Z,19.70
2022-10-25T10:57:01.288Z,19.70
2022-10-25T10:59:34.153Z,19.70
2022-10-25T11:02:20.288Z,19.70
2022-10-25T11:04:53.461Z,19.60
2022-10-25T11:07:35.850Z,19.70
2022-10-25T11:10:34.439Z,19.70
2022-10-25T11:13:11.359Z,19.70
2022-10-25T11:16:09.489Z,19.80
2022-10-25T11:18:52.403Z,19.80
2022-10-25T11:21:37.776Z,19.80
2022-10-25T11:24:10.663Z,19.80
2022-10-25T11:27:16.242Z,19.90
2022-10-25T11:30:10.977Z,19.90
2022-10-25T11:33:01.616Z,19.90
2022-10-25T11:36:04.029Z,19.90
2022-10-25T11:38:55.717Z,20.00
2022-10-25T11:41:48.394Z,20.00
2022-10-25T11:44:46.419Z,20.00
2022-10-25T11:47:44.102Z,20.00
2022-10-25T11:50:34.385Z,20.10
2022-10-25T11:53:35.286Z,20.20
2022-10-25T11:56:16.941Z,20.40
2022-10-25T11:58:46.981Z,20.50
2022-10-25T12:01:33.357Z,20.60
2022-10-25T12:04:29.539Z,20.70
2022-10-25T12:07:09.184Z,20.80
2022-10-25T12:10:03.362Z,20.80
2022-10-25T12:12:45.638Z,20.80
2022-10-25T12:15:22.515Z,20.80
2022-10-25T12:17:51.268Z,20.80
2022-10-25T12:20:26.508Z,20.70
2022-10-25T12:22:57.163Z,20.60
2022-10-25T12:25:33.287Z,20.60
2022-10-25T12:28:11.102Z,20.50
2022-10-25T12:30:41.128Z,20.40
2022-10-25T12:33:11.020Z,20.30
2022-10-25T12:35:47.489Z,20.20
2022-10-25T12:38:33.438Z,20.20
2022-10-25T12:41:03.649Z,20.00
2022-10-25T12:43:49.977Z,20.00
2022-10-25T12:46:50.333Z,19.90
2022-10-25T12:49:59.453Z,19.80
2022-10-25T12:53:12.726Z,19.70
2022-10-25T12:56:00.057Z,19.60
2022-10-25T12:58:36.011Z,19.60
2022-10-25T13:01:37.190Z,19.60
2022-10-25T13:04:22.927Z,19.60
2022-10-25T13:07:05.599Z,19.70
2022-10-25T13:09:35.020Z,19.70
2022-10-25T13:12:06.772Z,19.70
2022-10-25T13:14:43.492Z,19.70
2022-10-25T13:17:40.047Z,19.70
2022-10-25T13:22:46.720Z,19.70
2022-10-25T13:25:13.741Z,19.70
2022-10-25T13:28:15.982Z,19.80
2022-10-25T13:30:44.174Z,19.70
2022-10-25T13:33:24.649Z,19.80
2022-10-25T13:35:51.805Z,19.80
2022-10-25T13:38:38.861Z,19.90
2022-10-25T13:41:06.511Z,20.00
2022-10-25T13:43:35.411Z,20.00
2022-10-25T13:46:03.667Z,20.10
2022-10-25T13:48:33.443Z,20.00
2022-10-25T13:51:08.124Z,20.10
2022-10-25T13:53:54.454Z,20.10
2022-10-25T13:56:25.125Z,20.20
2022-10-25T13:58:53.737Z,20.20
2022-10-25T14:01:21.531Z,20.20
2022-10-25T14:04:32.652Z,20.20
2022-10-25T14:07:40.232Z,20.20
2022-10-25T14:10:15.365Z,20.20
2022-10-25T14:12:48.866Z,20.20
2022-10-25T14:15:26.249Z,20.20
2022-10-25T14:17:53.731Z,20.20
2022-10-25T14:20:32.668Z,20.20
2022-10-25T14:23:02.738Z,20.10
2022-10-25T14:25:49.039Z,20.10
2022-10-25T14:28:27.915Z,20.10
2022-10-25T14:31:02.328Z,20.10
2022-10-25T14:33:37.902Z,20.10
2022-10-25T14:36:24.361Z,20.10
2022-10-25T14:39:02.141Z,20.00
2022-10-25T14:41:32.368Z,20.00
2022-10-25T14:44:00.036Z,20.00
2022-10-25T14:46:30.206Z,20.00
2022-10-25T14:48:58.799Z,19.90
2022-10-25T14:51:35.909Z,19.90
2022-10-25T14:54:06.549Z,19.80
2022-10-25T14:56:41.548Z,19.80
2022-10-25T14:59:20.605Z,19.70
2022-10-25T15:02:22.894Z,19.70
2022-10-25T15:04:52.285Z,19.60
2022-10-25T15:07:51.500Z,19.60
2022-10-25T15:10:30.763Z,19.60
2022-10-25T15:13:20.791Z,19.60
2022-10-25T15:15:52.142Z,19.60
2022-10-25T15:18:31.720Z,19.50
2022-10-25T15:21:18.633Z,19.50
2022-10-25T15:24:22.092Z,19.50
2022-10-25T15:26:58.796Z,19.40
2022-10-25T15:32:15.609Z,19.40
2022-10-25T15:34:44.686Z,19.30
2022-10-25T15:37:13.700Z,19.30
2022-10-25T15:42:10.470Z,19.20
2022-10-25T15:44:41.447Z,19.20
2022-10-25T15:47:27.942Z,19.10
2022-10-25T15:49:55.502Z,19.10
2022-10-25T15:52:25.265Z,19.10
2022-10-25T15:54:52.733Z,19.00
2022-10-25T15:57:20.786Z,19.00
2022-10-25T15:59:47.831Z,19.00
2022-10-25T16:02:27.146Z,18.90
2022-10-25T16:04:54.727Z,18.90
2022-10-25T16:07:26.291Z,18.90
2022-10-25T16:09:54.983Z,18.80
2022-10-25T16:12:31.794Z,18.80
2022-10-25T16:14:58.858Z,18.70
2022-10-25T16:17:25.920Z,18.70
2022-10-25T16:19:52.907Z,18.60
2022-10-25T16:22:19.989Z,18.60
2022-10-25T16:24:47.507Z,18.60
2022-10-25T16:27:15.414Z,18.50
2022-10-25T16:29:43.147Z,18.50
2022-10-25T16:32:10.144Z,18.40
2022-10-25T16:34:37.867Z,18.40
2022-10-25T16:37:07.794Z,18.40
2022-10-25T16:39:38.500Z,18.30
2022-10-25T16:42:24.829Z,18.30
2022-10-25T16:44:51.823Z,18.30
2022-10-25T16:47:21.407Z,18.20
2022-10-25T16:49:51.768Z,18.20
2022-10-25T16:52:19.156Z,18.20
2022-10-25T16:54:47.129Z,18.10
2022-10-25T16:57:14.639Z,18.10
2022-10-25T16:59:41.618Z,18.00
2022-10-25T17:02:23.032Z,18.00
2022-10-25T17:04:50.974Z,18.00
2022-10-25T17:07:18.531Z,17.90
2022-10-25T17:09:46.003Z,17.90
2022-10-25T17:12:13.114Z,17.80
2022-10-25T17:14:40.644Z,17.80
2022-10-25T17:17:08.270Z,17.80
2022-10-25T17:19:36.059Z,17.80
2022-10-25T17:22:03.017Z,17.80
2022-10-25T17:24:33.351Z,17.80
2022-10-25T17:27:00.718Z,17.80
2022-10-25T17:29:27.780Z,17.80
2022-10-25T17:31:56.077Z,17.80
2022-10-25T17:34:25.097Z,17.90
2022-10-25T17:36:53.872Z,17.90
2022-10-25T17:39:20.883Z,17.90
2022-10-25T17:41:48.130Z,17.90
2022-10-25T17:44:15.272Z,17.90
2022-10-25T17:49:09.823Z,17.90
2022-10-25T17:51:37.831Z,17.80
2022-10-25T17:54:04.774Z,17.90
2022-10-25T17:58:59.431Z,17.90
2022-10-25T18:01:28.679Z,17.90
2022-10-25T18:03:55.924Z,17.90
2022-10-25T18:06:25.494Z,17.90
2022-10-25T18:08:59.084Z,17.90
2022-10-25T18:11:28.456Z,17.90
2022-10-25T18:14:04.000Z,17.90
2022-10-25T18:16:33.500Z,17.90
2022-10-25T18:19:02.494Z,17.90
2022-10-25T18:21:30.146Z,17.90
2022-10-25T18:23:59.136Z,17.90
2022-10-25T18:26:26.689Z,17.80
2022-10-25T18:28:54.258Z,17.80
2022-10-25T18:31:21.636Z,17.80
2022-10-25T18:33:48.884Z,17.70
2022-10-25T18:36:19.385Z,17.70
2022-10-25T18:38:51.875Z,17.60
2022-10-25T18:41:25.198Z,17.60
2022-10-25T18:43:55.069Z,17.50
2022-10-25T18:46:23.370Z,17.50
2022-10-25T18:48:51.700Z,17.40
2022-10-25T18:51:19.575Z,17.40
2022-10-25T18:53:46.854Z,17.30
2022-10-25T18:56:19.567Z,17.30
2022-10-25T18:58:49.390Z,17.20
2022-10-25T19:01:20.599Z,17.20
2022-10-25T19:03:48.501Z,17.10
2022-10-25T19:06:16.345Z,17.10
2022-10-25T19:08:45.160Z,17.00
2022-10-25T19:11:13.624Z,17.00
2022-10-25T19:13:41.359Z,17.00
2022-10-25T19:16:09.662Z,16.90
2022-10-25T19:18:37.521Z,17.00
2022-10-25T19:21:12.856Z,16.90
2022-10-25T19:23:42.723Z,16.90
2022-10-25T19:26:12.028Z,16.90
2022-10-25T19:28:39.607Z,16.90
2022-10-25T19:31:07.856Z,16.90
2022-10-25T19:33:35.964Z,16.90
2022-10-25T19:36:08.699Z,16.90
2022-10-25T19:38:37.172Z,16.90
2022-10-25T19:41:06.458Z,16.80
2022-10-25T19:43:34.573Z,16.80
2022-10-25T19:46:04.807Z,16.80
2022-10-25T19:48:32.748Z,16.80
2022-10-25T19:51:11.674Z,16.80
2022-10-25T19:53:39.359Z,16.80
2022-10-25T19:56:20.777Z,16.70
2022-10-25T19:58:48.765Z,16.70
2022-10-25T20:01:18.649Z,16.60
2022-10-25T20:03:49.734Z,16.60
2022-10-25T20:06:23.345Z,16.60
2022-10-25T20:08:53.079Z,16.50
2022-10-25T20:11:20.540Z,16.50
2022-10-25T20:13:47.938Z,16.50
2022-10-25T20:16:15.462Z,16.40
2022-10-25T20:18:43.219Z,16.40
2022-10-25T20:21:17.070Z,16.30
2022-10-25T20:23:49.400Z,16.30
2022-10-25T20:26:24.953Z,16.30
2022-10-25T20:28:57.157Z,16.20
2022-10-25T20:31:25.163Z,16.20
2022-10-25T20:33:53.472Z,16.20
2022-10-25T20:36:21.201Z,16.10
2022-10-25T20:38:48.727Z,16.00
2022-10-25T20:41:17.037Z,16.00
2022-10-25T20:43:53.515Z,16.00
2022-10-25T20:46:22.479Z,15.90
2022-10-25T20:48:49.746Z,15.90
2022-10-25T20:51:17.324Z,15.90
2022-10-25T20:53:45.835Z,15.90
2022-10-25T20:56:13.583Z,15.90
2022-10-25T20:58:41.166Z,15.80
2022-10-25T21:01:08.856Z,15.80
2022-10-25T21:03:36.789Z,15.80
2022-10-25T21:06:06.125Z,15.80
2022-10-25T21:08:33.947Z,15.70
2022-10-25T21:11:04.496Z,15.70
2022-10-25T21:13:35.598Z,15.70
2022-10-25T21:16:11.719Z,15.70
2022-10-25T21:18:39.650Z,15.60
2022-10-25T21:21:09.402Z,15.60
2022-10-25T21:23:36.489Z,15.60
2022-10-25T21:26:06.215Z,15.60
2022-10-25T21:28:35.960Z,15.50
2022-10-25T21:31:09.581Z,15.50
2022-10-25T21:33:37.289Z,15.50
2022-10-25T21:36:09.437Z,15.50
2022-10-25T21:38:37.255Z,15.40
2022-10-25T21:41:07.781Z,15.40
2022-10-25T21:43:35.741Z,15.40
2022-10-25T21:46:07.441Z,15.40
2022-10-25T21:48:35.695Z,15.30
2022-10-25T21:51:03.284Z,15.30
2022-10-25T21:53:31.121Z,15.30
2022-10-25T21:56:10.444Z,15.20
2022-10-25T21:58:39.591Z,15.20
2022-10-25T22:01:15.367Z,15.20
2022-10-25T22:03:43.195Z,15.10
2022-10-25T22:06:12.527Z,15.10
2022-10-25T22:08:40.059Z,15.10
2022-10-25T22:11:11.555Z,15.00
2022-10-25T22:13:39.327Z,15.10
2022-10-25T22:16:13.292Z,15.10
2022-10-25T22:18:40.971Z,15.00
2022-10-25T22:21:11.757Z,15.00
2022-10-25T22:23:39.793Z,15.00
2022-10-25T22:26:09.642Z,15.00
2022-10-25T22:28:40.934Z,14.90
2022-10-25T22:31:11.916Z,14.90
2022-10-25T22:33:39.386Z,14.90
2022-10-25T22:36:17.439Z,14.90
2022-10-25T22:38:45.281Z,14.80
2022-10-25T22:41:17.418Z,14.80
2022-10-25T22:43:45.894Z,14.80
2022-10-25T22:46:20.309Z,14.80
2022-10-25T22:48:47.247Z,14.80
2022-10-25T22:51:14.966Z,14.70
2022-10-25T22:53:42.869Z,14.70
2022-10-25T22:56:15.830Z,14.70
2022-10-25T22:58:47.877Z,14.70
2022-10-25T23:01:21.058Z,14.60
2022-10-25T23:03:51.493Z,14.60
2022-10-25T23:06:21.682Z,14.60
2022-10-25T23:08:48.775Z,14.60
2022-10-25T23:11:21.237Z,14.50
2022-10-25T23:13:49.212Z,14.50
2022-10-25T23:16:17.347Z,14.50
2022-10-25T23:18:45.214Z,14.50
2022-10-25T23:21:17.457Z,14.40
2022-10-25T23:23:45.535Z,14.40
2022-10-25T23:26:24.460Z,14.40
2022-10-25T23:28:52.395Z,14.40
2022-10-25T23:31:20.379Z,14.40
2022-10-25T23:33:52.332Z,14.30
2022-10-25T23:36:21.659Z,14.30
2022-10-25T23:38:50.175Z,14.30
2022-10-25T23:41:17.988Z,14.30
2022-10-25T23:43:45.027Z,14.30
2022-10-25T23:46:12.610Z,14.30
2022-10-25T23:48:40.444Z,14.30
2022-10-25T23:51:10.109Z,14.30
2022-10-25T23:53:38.159Z,14.30
2022-10-25T23:56:07.021Z,14.30
2022-10-25T23:58:34.364Z,14.30
